Historique des stations

Station météo de Sandillon

Altitude de la station : 98 m







Données météorologiques pour le 21/05/2022
Date
Heure
Températures Humidité Point de rosée Vitesse
du vent
Direction Rafales Windchill Pression Pluviométrie
Cumul
Date
Heure
Températures Humidité Point de rosée Vitesse
du vent
Direction Rafales Windchill Pression Pluviométrie
Cumul
21/05/2022 08:3115.1 °C84 %12.2 °C-E5 km/h15.0 1023 hPa-
21/05/2022 08:2914.9 °C84 %12.2 °C2 km/hE6 km/h15.0 1023 hPa-
21/05/2022 08:1414.1 °C89 %12.2 °C2 km/hESE6 km/h13.9 1023 hPa-
21/05/2022 08:0012.8 °C94 %11.7 °C2 km/hE3 km/h12.8 1023 hPa-
21/05/2022 07:5912.8 °C95 %12.2 °C2 km/hE6 km/h12.8 1023 hPa-
21/05/2022 07:4412.1 °C97 %11.7 °C3 km/hENE5 km/h12.2 1023 hPa-
21/05/2022 07:3010.7 °C97 %10.0 °C2 km/hENE5 km/h10.6 1023 hPa-
21/05/2022 07:1510.0 °C97 %9.4 °C2 km/hENE5 km/h10.0 1023 hPa-
21/05/2022 07:149.9 °C97 %9.4 °C-ENE5 km/h10.0 1023 hPa-
21/05/2022 07:009.5 °C97 %8.9 °C-ENE5 km/h9.4 1024 hPa-
21/05/2022 06:458.9 °C97 %8.3 °C-ENE2 km/h8.9 1024 hPa-
21/05/2022 06:448.9 °C97 %8.3 °C-ENE5 km/h8.9 1024 hPa-
21/05/2022 06:308.9 °C96 %8.3 °C-ENE5 km/h8.9 1024 hPa-
21/05/2022 06:159.1 °C96 %8.3 °C-ENE2 km/h8.9 1024 hPa-
21/05/2022 06:149.1 °C96 %8.3 °C-ENE5 km/h8.9 1023 hPa-
21/05/2022 05:599.1 °C96 %8.3 °C3 km/hENE5 km/h8.9 1024 hPa-
21/05/2022 05:459.1 °C96 %8.3 °C---8.9 1023 hPa-
21/05/2022 05:449.1 °C96 %8.3 °C-ENE5 km/h8.9 1023 hPa-
21/05/2022 05:299.3 °C96 %8.9 °C-ENE5 km/h9.4 1024 hPa-
21/05/2022 05:159.5 °C96 %8.9 °C2 km/hENE3 km/h9.4 1024 hPa-
21/05/2022 05:149.6 °C96 %8.9 °C3 km/hENE5 km/h9.4 1024 hPa-
21/05/2022 04:599.7 °C96 %8.9 °C2 km/hENE5 km/h9.4 1024 hPa-
21/05/2022 04:459.6 °C96 %8.9 °C2 km/hENE3 km/h9.4 1024 hPa-
21/05/2022 04:439.6 °C96 %8.9 °C2 km/hENE3 km/h9.4 1024 hPa-
21/05/2022 04:319.6 °C96 %8.9 °C2 km/hENE3 km/h9.4 1024 hPa-
21/05/2022 04:299.6 °C96 %8.9 °C2 km/hENE3 km/h9.4 1024 hPa-
21/05/2022 04:159.6 °C96 %8.9 °C3 km/hNE3 km/h9.4 1024 hPa-
21/05/2022 03:599.6 °C96 %8.9 °C-NE3 km/h9.4 1024 hPa-
21/05/2022 03:459.5 °C96 %8.9 °C2 km/hNE3 km/h9.4 1024 hPa-
21/05/2022 03:309.5 °C96 %8.9 °C2 km/hNE3 km/h9.4 1024 hPa-
21/05/2022 03:299.5 °C96 %8.9 °C-NE3 km/h9.4 1024 hPa-
21/05/2022 03:149.5 °C95 %8.9 °C-NE3 km/h9.4 1024 hPa-
21/05/2022 03:009.7 °C95 %8.9 °C---9.4 1024 hPa-
21/05/2022 02:599.7 °C95 %8.9 °C-NE3 km/h9.4 1024 hPa-
21/05/2022 02:449.8 °C95 %8.9 °C-NE3 km/h10.0 1024 hPa-
21/05/2022 02:309.8 °C95 %8.9 °C---10.0 1024 hPa-
21/05/2022 02:299.9 °C95 %8.9 °C-NE3 km/h10.0 1024 hPa-
21/05/2022 02:149.9 °C95 %9.4 °C-NE3 km/h10.0 1024 hPa-
21/05/2022 02:0010.0 °C95 %9.4 °C-NE3 km/h10.0 1024 hPa-
21/05/2022 01:4410.2 °C94 %9.4 °C-NE3 km/h10.0 1024 hPa-
21/05/2022 01:3010.5 °C94 %9.4 °C-NE3 km/h10.6 1024 hPa-
21/05/2022 01:1410.8 °C94 %10.0 °C-NE3 km/h10.6 1024 hPa-
21/05/2022 01:0010.8 °C94 %10.0 °C-NE3 km/h11.1 1024 hPa-
21/05/2022 00:4411.0 °C93 %10.0 °C-NE3 km/h11.1 1024 hPa-
21/05/2022 00:3011.3 °C93 %10.0 °C---11.1 1024 hPa-
21/05/2022 00:1511.5 °C92 %10.0 °C---11.7 1024 hPa-
21/05/2022 00:1411.5 °C92 %10.0 °C---11.7 1024 hPa-


Minima :

Température : 8.9 °C
Humidité : 84 %
Point de rosée : 8.3 °C
Vent moyen : 2 km/h
Windchill : 8.9
Pression atm. : 1023 hPa
Maxima :

Température : 15.1 °C
Humidité : 97 %
Point de rosée : 12.2 °C
Vent moyen : 3 km/h
Windchill : 15.0
Pression atm. : 1024 hPa
Rafales max : 6 km/h
Cumul de pluie sur 24H : 0 mm

Sandillon est une commune du département Loiret (45).
La station météorologique du réseau de l'association la plus proche de Sandillon est celle de Olivet
Site du propriétaire de la station : www.meteosandillon.fr



Icône Facebook Association Météo Centre Icône Twitter Association Météo Centre Icône Chaîne Youtube Association Météo Centre Icône contact Association Météo Centre Icône Insta Association Météo Centre